sensor_id;sensor_type;location;lat;lon;timestamp;P1;durP1;ratioP1;P2;durP2;ratioP2
67828;SDS011;54626;45.436;10.942;2022-09-28T00:01:15;17.42;;;8.05;;
67828;SDS011;54626;45.436;10.942;2022-09-28T00:03:52;13.77;;;7.13;;
67828;SDS011;54626;45.436;10.942;2022-09-28T00:06:25;8.02;;;4.22;;
67828;SDS011;54626;45.436;10.942;2022-09-28T00:08:53;13.23;;;6.60;;
67828;SDS011;54626;45.436;10.942;2022-09-28T00:11:21;13.60;;;6.82;;
67828;SDS011;54626;45.436;10.942;2022-09-28T00:13:57;16.75;;;7.63;;
67828;SDS011;54626;45.436;10.942;2022-09-28T00:16:28;9.75;;;5.18;;
67828;SDS011;54626;45.436;10.942;2022-09-28T00:18:57;18.83;;;8.93;;
67828;SDS011;54626;45.436;10.942;2022-09-28T00:21:24;20.10;;;10.10;;
67828;SDS011;54626;45.436;10.942;2022-09-28T00:23:55;20.65;;;8.43;;
67828;SDS011;54626;45.436;10.942;2022-09-28T00:29:23;20.10;;;9.52;;
67828;SDS011;54626;45.436;10.942;2022-09-28T00:31:53;19.00;;;10.15;;
67828;SDS011;54626;45.436;10.942;2022-09-28T00:34:30;21.67;;;9.63;;
67828;SDS011;54626;45.436;10.942;2022-09-28T00:37:00;19.10;;;9.05;;
67828;SDS011;54626;45.436;10.942;2022-09-28T00:39:31;10.95;;;4.95;;
67828;SDS011;54626;45.436;10.942;2022-09-28T00:41:57;10.13;;;4.95;;
67828;SDS011;54626;45.436;10.942;2022-09-28T00:46:52;18.75;;;9.68;;
67828;SDS011;54626;45.436;10.942;2022-09-28T00:49:44;21.75;;;9.95;;
67828;SDS011;54626;45.436;10.942;2022-09-28T00:52:16;18.65;;;8.93;;
67828;SDS011;54626;45.436;10.942;2022-09-28T00:54:51;21.85;;;10.23;;
67828;SDS011;54626;45.436;10.942;2022-09-28T00:57:18;14.93;;;7.00;;
67828;SDS011;54626;45.436;10.942;2022-09-28T00:59:46;12.25;;;5.93;;
67828;SDS011;54626;45.436;10.942;2022-09-28T01:02:15;20.98;;;9.60;;
67828;SDS011;54626;45.436;10.942;2022-09-28T01:04:41;10.52;;;5.50;;
67828;SDS011;54626;45.436;10.942;2022-09-28T01:07:10;22.77;;;9.52;;
67828;SDS011;54626;45.436;10.942;2022-09-28T01:09:38;22.08;;;9.50;;
67828;SDS011;54626;45.436;10.942;2022-09-28T01:12:06;18.98;;;9.15;;
67828;SDS011;54626;45.436;10.942;2022-09-28T01:14:33;13.70;;;6.20;;
67828;SDS011;54626;45.436;10.942;2022-09-28T01:28:05;25.15;;;10.23;;
67828;SDS011;54626;45.436;10.942;2022-09-28T01:31:02;19.45;;;8.10;;
67828;SDS011;54626;45.436;10.942;2022-09-28T01:33:37;14.02;;;5.90;;
67828;SDS011;54626;45.436;10.942;2022-09-28T01:39:06;18.95;;;9.20;;
67828;SDS011;54626;45.436;10.942;2022-09-28T01:41:36;21.75;;;10.82;;
67828;SDS011;54626;45.436;10.942;2022-09-28T01:44:06;20.98;;;8.75;;
67828;SDS011;54626;45.436;10.942;2022-09-28T01:49:25;21.98;;;9.93;;
67828;SDS011;54626;45.436;10.942;2022-09-28T01:55:01;22.85;;;9.80;;
67828;SDS011;54626;45.436;10.942;2022-09-28T01:57:47;16.35;;;7.20;;
67828;SDS011;54626;45.436;10.942;2022-09-28T02:00:17;23.52;;;10.25;;
67828;SDS011;54626;45.436;10.942;2022-09-28T02:05:41;11.25;;;5.20;;
67828;SDS011;54626;45.436;10.942;2022-09-28T02:10:43;19.50;;;8.07;;
67828;SDS011;54626;45.436;10.942;2022-09-28T02:13:14;17.58;;;9.07;;
67828;SDS011;54626;45.436;10.942;2022-09-28T02:15:47;20.80;;;8.20;;
67828;SDS011;54626;45.436;10.942;2022-09-28T02:18:16;17.17;;;7.38;;
67828;SDS011;54626;45.436;10.942;2022-09-28T02:20:45;13.45;;;6.97;;
67828;SDS011;54626;45.436;10.942;2022-09-28T02:23:14;17.20;;;7.63;;
67828;SDS011;54626;45.436;10.942;2022-09-28T02:25:51;12.70;;;6.15;;
67828;SDS011;54626;45.436;10.942;2022-09-28T02:28:23;13.68;;;6.50;;
67828;SDS011;54626;45.436;10.942;2022-09-28T02:30:49;9.40;;;4.13;;
67828;SDS011;54626;45.436;10.942;2022-09-28T02:33:20;8.07;;;4.47;;
67828;SDS011;54626;45.436;10.942;2022-09-28T02:35:50;7.05;;;3.45;;
67828;SDS011;54626;45.436;10.942;2022-09-28T02:38:17;8.40;;;4.43;;
67828;SDS011;54626;45.436;10.942;2022-09-28T02:40:44;6.25;;;2.90;;
67828;SDS011;54626;45.436;10.942;2022-09-28T02:46:28;5.30;;;2.42;;
67828;SDS011;54626;45.436;10.942;2022-09-28T02:57:33;6.20;;;2.80;;
67828;SDS011;54626;45.436;10.942;2022-09-28T03:00:23;5.15;;;2.42;;
67828;SDS011;54626;45.436;10.942;2022-09-28T03:02:54;4.30;;;1.75;;
67828;SDS011;54626;45.436;10.942;2022-09-28T03:11:06;7.05;;;2.97;;
67828;SDS011;54626;45.436;10.942;2022-09-28T03:13:35;8.77;;;2.95;;
67828;SDS011;54626;45.436;10.942;2022-09-28T03:16:06;4.70;;;2.20;;
67828;SDS011;54626;45.436;10.942;2022-09-28T03:18:37;3.42;;;1.50;;
67828;SDS011;54626;45.436;10.942;2022-09-28T03:21:04;5.38;;;2.42;;
67828;SDS011;54626;45.436;10.942;2022-09-28T03:23:33;5.75;;;2.65;;
67828;SDS011;54626;45.436;10.942;2022-09-28T03:25:59;5.18;;;2.60;;
67828;SDS011;54626;45.436;10.942;2022-09-28T03:28:26;3.22;;;1.30;;
67828;SDS011;54626;45.436;10.942;2022-09-28T03:30:53;6.22;;;3.00;;
67828;SDS011;54626;45.436;10.942;2022-09-28T03:33:19;6.60;;;3.00;;
67828;SDS011;54626;45.436;10.942;2022-09-28T03:35:46;4.70;;;2.67;;
67828;SDS011;54626;45.436;10.942;2022-09-28T03:38:16;2.78;;;1.52;;
67828;SDS011;54626;45.436;10.942;2022-09-28T03:40:43;4.88;;;1.98;;
67828;SDS011;54626;45.436;10.942;2022-09-28T03:43:17;9.52;;;4.30;;
67828;SDS011;54626;45.436;10.942;2022-09-28T03:45:49;6.70;;;3.28;;
67828;SDS011;54626;45.436;10.942;2022-09-28T03:48:26;15.77;;;6.55;;
67828;SDS011;54626;45.436;10.942;2022-09-28T03:53:32;12.20;;;5.07;;
67828;SDS011;54626;45.436;10.942;2022-09-28T03:56:02;16.67;;;6.60;;
67828;SDS011;54626;45.436;10.942;2022-09-28T03:58:33;7.38;;;4.05;;
67828;SDS011;54626;45.436;10.942;2022-09-28T04:01:00;15.75;;;6.53;;
67828;SDS011;54626;45.436;10.942;2022-09-28T04:03:34;16.63;;;6.10;;
67828;SDS011;54626;45.436;10.942;2022-09-28T04:06:03;19.70;;;7.72;;
67828;SDS011;54626;45.436;10.942;2022-09-28T04:08:35;15.80;;;7.57;;
67828;SDS011;54626;45.436;10.942;2022-09-28T04:11:07;21.17;;;7.35;;
67828;SDS011;54626;45.436;10.942;2022-09-28T04:13:33;10.27;;;4.93;;
67828;SDS011;54626;45.436;10.942;2022-09-28T04:16:00;18.73;;;8.38;;
67828;SDS011;54626;45.436;10.942;2022-09-28T04:18:27;5.18;;;2.80;;
67828;SDS011;54626;45.436;10.942;2022-09-28T04:20:58;10.98;;;4.97;;
67828;SDS011;54626;45.436;10.942;2022-09-28T04:23:26;17.75;;;7.88;;
67828;SDS011;54626;45.436;10.942;2022-09-28T04:25:53;16.50;;;8.45;;
67828;SDS011;54626;45.436;10.942;2022-09-28T04:28:19;14.48;;;6.95;;
67828;SDS011;54626;45.436;10.942;2022-09-28T04:31:08;16.33;;;8.10;;
67828;SDS011;54626;45.436;10.942;2022-09-28T04:33:36;16.15;;;7.97;;
67828;SDS011;54626;45.436;10.942;2022-09-28T04:36:17;14.65;;;7.45;;
67828;SDS011;54626;45.436;10.942;2022-09-28T04:38:47;20.95;;;9.15;;
67828;SDS011;54626;45.436;10.942;2022-09-28T04:41:18;13.43;;;6.95;;
67828;SDS011;54626;45.436;10.942;2022-09-28T04:43:52;22.10;;;8.88;;
67828;SDS011;54626;45.436;10.942;2022-09-28T04:46:19;14.02;;;4.63;;
67828;SDS011;54626;45.436;10.942;2022-09-28T04:48:45;17.20;;;7.75;;
67828;SDS011;54626;45.436;10.942;2022-09-28T04:51:12;17.13;;;8.27;;
67828;SDS011;54626;45.436;10.942;2022-09-28T04:53:38;14.60;;;7.10;;
67828;SDS011;54626;45.436;10.942;2022-09-28T04:56:06;16.70;;;7.75;;
67828;SDS011;54626;45.436;10.942;2022-09-28T04:58:42;12.48;;;5.40;;
67828;SDS011;54626;45.436;10.942;2022-09-28T05:01:23;17.20;;;7.45;;
67828;SDS011;54626;45.436;10.942;2022-09-28T05:04:11;9.05;;;3.92;;
67828;SDS011;54626;45.436;10.942;2022-09-28T05:06:44;23.33;;;10.63;;
67828;SDS011;54626;45.436;10.942;2022-09-28T05:09:10;24.45;;;10.23;;
67828;SDS011;54626;45.436;10.942;2022-09-28T05:11:36;18.70;;;7.85;;
67828;SDS011;54626;45.436;10.942;2022-09-28T05:14:06;24.10;;;10.82;;
67828;SDS011;54626;45.436;10.942;2022-09-28T05:16:32;19.00;;;9.38;;
67828;SDS011;54626;45.436;10.942;2022-09-28T05:19:02;18.45;;;8.35;;
67828;SDS011;54626;45.436;10.942;2022-09-28T05:21:30;19.52;;;8.85;;
67828;SDS011;54626;45.436;10.942;2022-09-28T05:23:58;22.52;;;9.77;;
67828;SDS011;54626;45.436;10.942;2022-09-28T05:26:25;11.00;;;4.72;;
67828;SDS011;54626;45.436;10.942;2022-09-28T05:28:51;18.60;;;8.88;;
67828;SDS011;54626;45.436;10.942;2022-09-28T05:31:20;21.67;;;9.02;;
67828;SDS011;54626;45.436;10.942;2022-09-28T05:33:50;18.77;;;7.85;;
67828;SDS011;54626;45.436;10.942;2022-09-28T05:36:16;23.75;;;9.57;;
67828;SDS011;54626;45.436;10.942;2022-09-28T05:38:43;22.98;;;9.80;;
67828;SDS011;54626;45.436;10.942;2022-09-28T05:43:53;18.73;;;7.93;;
67828;SDS011;54626;45.436;10.942;2022-09-28T05:46:26;21.17;;;7.97;;
67828;SDS011;54626;45.436;10.942;2022-09-28T05:48:53;15.50;;;7.15;;
67828;SDS011;54626;45.436;10.942;2022-09-28T05:51:19;16.30;;;7.50;;
67828;SDS011;54626;45.436;10.942;2022-09-28T05:53:55;15.88;;;8.57;;
67828;SDS011;54626;45.436;10.942;2022-09-28T05:56:25;18.05;;;7.45;;
67828;SDS011;54626;45.436;10.942;2022-09-28T05:58:56;18.63;;;8.77;;
67828;SDS011;54626;45.436;10.942;2022-09-28T06:01:25;18.08;;;8.45;;
67828;SDS011;54626;45.436;10.942;2022-09-28T06:03:52;19.67;;;8.88;;
67828;SDS011;54626;45.436;10.942;2022-09-28T06:06:18;16.35;;;8.27;;
67828;SDS011;54626;45.436;10.942;2022-09-28T06:08:45;19.35;;;8.98;;
67828;SDS011;54626;45.436;10.942;2022-09-28T06:11:13;11.20;;;5.30;;
67828;SDS011;54626;45.436;10.942;2022-09-28T06:13:44;14.82;;;6.57;;
67828;SDS011;54626;45.436;10.942;2022-09-28T06:16:22;16.23;;;6.72;;
67828;SDS011;54626;45.436;10.942;2022-09-28T06:21:18;8.75;;;4.35;;
67828;SDS011;54626;45.436;10.942;2022-09-28T06:23:54;12.18;;;5.72;;
67828;SDS011;54626;45.436;10.942;2022-09-28T06:26:20;12.70;;;6.68;;
67828;SDS011;54626;45.436;10.942;2022-09-28T06:28:47;18.58;;;8.20;;
67828;SDS011;54626;45.436;10.942;2022-09-28T06:31:22;21.38;;;9.38;;
67828;SDS011;54626;45.436;10.942;2022-09-28T06:33:50;14.07;;;6.97;;
67828;SDS011;54626;45.436;10.942;2022-09-28T06:36:20;19.30;;;8.85;;
67828;SDS011;54626;45.436;10.942;2022-09-28T06:38:58;19.58;;;8.23;;
67828;SDS011;54626;45.436;10.942;2022-09-28T06:41:24;18.30;;;8.80;;
67828;SDS011;54626;45.436;10.942;2022-09-28T06:43:51;17.88;;;9.77;;
67828;SDS011;54626;45.436;10.942;2022-09-28T06:46:19;15.73;;;7.53;;
67828;SDS011;54626;45.436;10.942;2022-09-28T06:48:48;19.08;;;8.18;;
67828;SDS011;54626;45.436;10.942;2022-09-28T06:51:18;15.80;;;7.00;;
67828;SDS011;54626;45.436;10.942;2022-09-28T06:53:44;8.43;;;3.85;;
67828;SDS011;54626;45.436;10.942;2022-09-28T06:56:17;12.88;;;4.38;;
67828;SDS011;54626;45.436;10.942;2022-09-28T06:58:49;8.95;;;4.65;;
67828;SDS011;54626;45.436;10.942;2022-09-28T07:01:15;7.20;;;3.40;;
67828;SDS011;54626;45.436;10.942;2022-09-28T07:03:48;5.53;;;2.70;;
67828;SDS011;54626;45.436;10.942;2022-09-28T07:06:20;8.00;;;3.40;;
67828;SDS011;54626;45.436;10.942;2022-09-28T07:08:50;6.03;;;2.45;;
67828;SDS011;54626;45.436;10.942;2022-09-28T07:11:40;4.30;;;2.22;;
67828;SDS011;54626;45.436;10.942;2022-09-28T07:14:10;8.07;;;3.63;;
67828;SDS011;54626;45.436;10.942;2022-09-28T07:17:12;9.57;;;4.25;;
67828;SDS011;54626;45.436;10.942;2022-09-28T07:19:40;13.00;;;5.45;;
67828;SDS011;54626;45.436;10.942;2022-09-28T07:22:21;7.47;;;4.00;;
67828;SDS011;54626;45.436;10.942;2022-09-28T07:25:07;7.18;;;3.10;;
67828;SDS011;54626;45.436;10.942;2022-09-28T07:27:34;7.43;;;3.97;;
67828;SDS011;54626;45.436;10.942;2022-09-28T07:30:09;13.13;;;4.88;;
67828;SDS011;54626;45.436;10.942;2022-09-28T07:32:44;12.52;;;6.07;;
67828;SDS011;54626;45.436;10.942;2022-09-28T07:35:16;13.15;;;5.75;;
67828;SDS011;54626;45.436;10.942;2022-09-28T07:37:43;6.28;;;3.25;;
67828;SDS011;54626;45.436;10.942;2022-09-28T07:40:15;9.93;;;5.20;;
67828;SDS011;54626;45.436;10.942;2022-09-28T07:43:04;8.93;;;4.50;;
67828;SDS011;54626;45.436;10.942;2022-09-28T07:45:31;8.45;;;4.13;;
67828;SDS011;54626;45.436;10.942;2022-09-28T07:48:16;10.57;;;5.07;;
67828;SDS011;54626;45.436;10.942;2022-09-28T07:50:50;13.25;;;5.07;;
67828;SDS011;54626;45.436;10.942;2022-09-28T07:55:52;9.57;;;3.75;;
67828;SDS011;54626;45.436;10.942;2022-09-28T07:58:21;8.10;;;3.60;;
67828;SDS011;54626;45.436;10.942;2022-09-28T08:00:48;7.03;;;3.30;;
67828;SDS011;54626;45.436;10.942;2022-09-28T08:03:18;5.40;;;2.60;;
67828;SDS011;54626;45.436;10.942;2022-09-28T08:05:47;11.32;;;3.08;;
67828;SDS011;54626;45.436;10.942;2022-09-28T08:08:15;3.95;;;1.80;;
67828;SDS011;54626;45.436;10.942;2022-09-28T08:10:47;6.03;;;2.35;;
67828;SDS011;54626;45.436;10.942;2022-09-28T08:16:05;2.75;;;1.52;;
67828;SDS011;54626;45.436;10.942;2022-09-28T08:18:35;2.08;;;1.30;;
67828;SDS011;54626;45.436;10.942;2022-09-28T08:21:02;5.75;;;1.55;;
67828;SDS011;54626;45.436;10.942;2022-09-28T08:23:47;1.65;;;0.70;;
67828;SDS011;54626;45.436;10.942;2022-09-28T08:26:15;2.47;;;0.65;;
67828;SDS011;54626;45.436;10.942;2022-09-28T08:28:42;1.75;;;0.60;;
67828;SDS011;54626;45.436;10.942;2022-09-28T08:31:19;1.25;;;0.57;;
67828;SDS011;54626;45.436;10.942;2022-09-28T08:33:48;0.98;;;0.50;;
67828;SDS011;54626;45.436;10.942;2022-09-28T08:36:34;1.00;;;0.50;;
67828;SDS011;54626;45.436;10.942;2022-09-28T08:39:03;1.20;;;0.55;;
67828;SDS011;54626;45.436;10.942;2022-09-28T08:41:33;0.60;;;0.40;;
67828;SDS011;54626;45.436;10.942;2022-09-28T08:44:42;1.42;;;0.70;;
67828;SDS011;54626;45.436;10.942;2022-09-28T08:47:42;1.25;;;0.40;;
67828;SDS011;54626;45.436;10.942;2022-09-28T08:50:40;1.17;;;0.50;;
67828;SDS011;54626;45.436;10.942;2022-09-28T08:59:16;0.68;;;0.40;;
67828;SDS011;54626;45.436;10.942;2022-09-28T09:01:54;1.40;;;0.43;;
67828;SDS011;54626;45.436;10.942;2022-09-28T09:04:25;1.33;;;0.63;;
67828;SDS011;54626;45.436;10.942;2022-09-28T09:17:46;0.55;;;0.40;;
67828;SDS011;54626;45.436;10.942;2022-09-28T09:26:37;0.95;;;0.52;;
67828;SDS011;54626;45.436;10.942;2022-09-28T09:35:16;5.28;;;0.70;;
67828;SDS011;54626;45.436;10.942;2022-09-28T09:38:11;0.85;;;0.40;;
67828;SDS011;54626;45.436;10.942;2022-09-28T09:48:58;1.42;;;0.60;;
67828;SDS011;54626;45.436;10.942;2022-09-28T09:51:46;1.58;;;0.38;;
67828;SDS011;54626;45.436;10.942;2022-09-28T09:59:57;1.85;;;0.43;;
67828;SDS011;54626;45.436;10.942;2022-09-28T10:02:26;1.55;;;0.70;;
67828;SDS011;54626;45.436;10.942;2022-09-28T10:05:01;1.75;;;0.40;;
67828;SDS011;54626;45.436;10.942;2022-09-28T10:07:43;0.75;;;0.43;;
67828;SDS011;54626;45.436;10.942;2022-09-28T10:10:27;0.85;;;0.50;;
67828;SDS011;54626;45.436;10.942;2022-09-28T10:13:03;0.90;;;0.50;;
67828;SDS011;54626;45.436;10.942;2022-09-28T10:15:30;1.92;;;0.90;;
67828;SDS011;54626;45.436;10.942;2022-09-28T10:18:02;0.85;;;0.52;;
67828;SDS011;54626;45.436;10.942;2022-09-28T10:20:41;0.90;;;0.60;;
67828;SDS011;54626;45.436;10.942;2022-09-28T10:23:12;2.17;;;0.55;;
67828;SDS011;54626;45.436;10.942;2022-09-28T10:25:43;0.57;;;0.40;;
67828;SDS011;54626;45.436;10.942;2022-09-28T10:28:14;1.83;;;0.57;;
67828;SDS011;54626;45.436;10.942;2022-09-28T10:30:44;1.75;;;0.50;;
67828;SDS011;54626;45.436;10.942;2022-09-28T10:33:30;1.45;;;0.60;;
67828;SDS011;54626;45.436;10.942;2022-09-28T10:36:01;0.68;;;0.40;;
67828;SDS011;54626;45.436;10.942;2022-09-28T10:41:48;1.30;;;0.55;;
67828;SDS011;54626;45.436;10.942;2022-09-28T10:44:18;2.78;;;0.68;;
67828;SDS011;54626;45.436;10.942;2022-09-28T10:46:53;1.15;;;0.40;;
67828;SDS011;54626;45.436;10.942;2022-09-28T10:49:23;1.25;;;0.52;;
67828;SDS011;54626;45.436;10.942;2022-09-28T10:51:52;0.57;;;0.30;;
67828;SDS011;54626;45.436;10.942;2022-09-28T10:54:23;1.70;;;0.50;;
67828;SDS011;54626;45.436;10.942;2022-09-28T10:56:51;2.47;;;0.57;;
67828;SDS011;54626;45.436;10.942;2022-09-28T11:01:58;2.80;;;0.70;;
67828;SDS011;54626;45.436;10.942;2022-09-28T11:05:17;2.63;;;0.80;;
67828;SDS011;54626;45.436;10.942;2022-09-28T11:07:46;1.85;;;0.50;;
67828;SDS011;54626;45.436;10.942;2022-09-28T11:13:08;0.80;;;0.40;;
67828;SDS011;54626;45.436;10.942;2022-09-28T11:15:40;0.73;;;0.30;;
67828;SDS011;54626;45.436;10.942;2022-09-28T11:21:05;1.40;;;0.60;;
67828;SDS011;54626;45.436;10.942;2022-09-28T11:23:37;1.20;;;0.60;;
67828;SDS011;54626;45.436;10.942;2022-09-28T11:26:05;1.02;;;0.70;;
67828;SDS011;54626;45.436;10.942;2022-09-28T11:28:36;1.63;;;0.50;;
67828;SDS011;54626;45.436;10.942;2022-09-28T11:31:07;0.95;;;0.50;;
67828;SDS011;54626;45.436;10.942;2022-09-28T11:33:41;0.70;;;0.40;;
67828;SDS011;54626;45.436;10.942;2022-09-28T11:38:39;2.10;;;0.50;;
67828;SDS011;54626;45.436;10.942;2022-09-28T11:44:15;0.98;;;0.40;;
67828;SDS011;54626;45.436;10.942;2022-09-28T11:47:36;2.40;;;0.60;;
67828;SDS011;54626;45.436;10.942;2022-09-28T11:58:50;1.13;;;0.50;;
67828;SDS011;54626;45.436;10.942;2022-09-28T12:09:51;3.25;;;0.52;;
67828;SDS011;54626;45.436;10.942;2022-09-28T12:12:37;2.90;;;0.80;;
67828;SDS011;54626;45.436;10.942;2022-09-28T12:18:55;3.42;;;0.63;;
67828;SDS011;54626;45.436;10.942;2022-09-28T12:24:32;1.42;;;0.63;;
67828;SDS011;54626;45.436;10.942;2022-09-28T12:29:47;4.72;;;0.93;;
67828;SDS011;54626;45.436;10.942;2022-09-28T12:32:24;0.98;;;0.60;;
67828;SDS011;54626;45.436;10.942;2022-09-28T12:34:56;1.33;;;0.73;;
67828;SDS011;54626;45.436;10.942;2022-09-28T12:51:28;3.05;;;0.50;;
67828;SDS011;54626;45.436;10.942;2022-09-28T12:54:23;2.17;;;0.70;;
67828;SDS011;54626;45.436;10.942;2022-09-28T12:57:27;2.53;;;0.70;;
67828;SDS011;54626;45.436;10.942;2022-09-28T13:08:07;1.92;;;0.70;;
67828;SDS011;54626;45.436;10.942;2022-09-28T13:10:43;3.97;;;0.80;;
67828;SDS011;54626;45.436;10.942;2022-09-28T13:16:54;4.32;;;0.93;;
67828;SDS011;54626;45.436;10.942;2022-09-28T13:19:23;2.10;;;0.80;;
67828;SDS011;54626;45.436;10.942;2022-09-28T13:25:05;2.88;;;0.70;;
67828;SDS011;54626;45.436;10.942;2022-09-28T13:27:39;2.05;;;0.75;;
67828;SDS011;54626;45.436;10.942;2022-09-28T13:30:11;2.13;;;0.55;;
67828;SDS011;54626;45.436;10.942;2022-09-28T13:32:38;3.20;;;0.98;;
67828;SDS011;54626;45.436;10.942;2022-09-28T13:35:05;1.60;;;0.60;;
67828;SDS011;54626;45.436;10.942;2022-09-28T13:37:37;3.72;;;0.80;;
67828;SDS011;54626;45.436;10.942;2022-09-28T13:40:09;3.78;;;0.85;;
67828;SDS011;54626;45.436;10.942;2022-09-28T13:42:55;2.17;;;0.70;;
67828;SDS011;54626;45.436;10.942;2022-09-28T13:45:38;3.60;;;1.10;;
67828;SDS011;54626;45.436;10.942;2022-09-28T13:48:20;1.90;;;0.65;;
67828;SDS011;54626;45.436;10.942;2022-09-28T13:51:01;2.25;;;0.55;;
67828;SDS011;54626;45.436;10.942;2022-09-28T13:59:29;2.35;;;0.70;;
67828;SDS011;54626;45.436;10.942;2022-09-28T14:01:59;4.80;;;0.70;;
67828;SDS011;54626;45.436;10.942;2022-09-28T14:12:47;0.95;;;0.50;;
67828;SDS011;54626;45.436;10.942;2022-09-28T14:26:38;1.70;;;0.88;;
67828;SDS011;54626;45.436;10.942;2022-09-28T14:29:31;2.92;;;0.75;;
67828;SDS011;54626;45.436;10.942;2022-09-28T14:32:03;1.63;;;0.70;;
67828;SDS011;54626;45.436;10.942;2022-09-28T14:34:58;2.03;;;0.82;;
67828;SDS011;54626;45.436;10.942;2022-09-28T14:37:38;3.28;;;1.00;;
67828;SDS011;54626;45.436;10.942;2022-09-28T14:40:33;3.85;;;0.82;;
67828;SDS011;54626;45.436;10.942;2022-09-28T14:48:47;2.80;;;0.73;;
67828;SDS011;54626;45.436;10.942;2022-09-28T14:53:58;1.98;;;0.80;;
67828;SDS011;54626;45.436;10.942;2022-09-28T14:56:29;1.55;;;0.60;;
67828;SDS011;54626;45.436;10.942;2022-09-28T14:58:58;3.28;;;0.80;;
67828;SDS011;54626;45.436;10.942;2022-09-28T15:01:25;1.30;;;0.60;;
67828;SDS011;54626;45.436;10.942;2022-09-28T15:03:55;1.45;;;0.60;;
67828;SDS011;54626;45.436;10.942;2022-09-28T15:06:23;1.27;;;0.60;;
67828;SDS011;54626;45.436;10.942;2022-09-28T15:08:50;1.35;;;0.52;;
67828;SDS011;54626;45.436;10.942;2022-09-28T15:11:19;1.00;;;0.60;;
67828;SDS011;54626;45.436;10.942;2022-09-28T15:13:49;3.78;;;1.05;;
67828;SDS011;54626;45.436;10.942;2022-09-28T15:16:21;2.10;;;0.90;;
67828;SDS011;54626;45.436;10.942;2022-09-28T15:21:48;1.60;;;0.60;;
67828;SDS011;54626;45.436;10.942;2022-09-28T15:24:22;1.55;;;0.65;;
67828;SDS011;54626;45.436;10.942;2022-09-28T15:26:51;0.88;;;0.50;;
67828;SDS011;54626;45.436;10.942;2022-09-28T15:29:18;1.73;;;0.50;;
67828;SDS011;54626;45.436;10.942;2022-09-28T15:31:51;5.63;;;1.15;;
67828;SDS011;54626;45.436;10.942;2022-09-28T15:37:15;1.17;;;0.52;;
67828;SDS011;54626;45.436;10.942;2022-09-28T15:39:43;1.73;;;0.60;;
67828;SDS011;54626;45.436;10.942;2022-09-28T15:42:11;2.13;;;0.75;;
67828;SDS011;54626;45.436;10.942;2022-09-28T15:44:37;1.30;;;0.50;;
67828;SDS011;54626;45.436;10.942;2022-09-28T15:47:05;1.13;;;0.70;;
67828;SDS011;54626;45.436;10.942;2022-09-28T15:52:25;2.30;;;0.75;;
67828;SDS011;54626;45.436;10.942;2022-09-28T15:58:17;1.80;;;0.40;;
67828;SDS011;54626;45.436;10.942;2022-09-28T16:00:45;1.05;;;0.50;;
67828;SDS011;54626;45.436;10.942;2022-09-28T16:08:18;4.35;;;1.45;;
67828;SDS011;54626;45.436;10.942;2022-09-28T16:13:44;3.25;;;1.30;;
67828;SDS011;54626;45.436;10.942;2022-09-28T16:16:22;2.75;;;1.20;;
67828;SDS011;54626;45.436;10.942;2022-09-28T16:18:59;2.20;;;0.70;;
67828;SDS011;54626;45.436;10.942;2022-09-28T16:24:14;1.38;;;0.70;;
67828;SDS011;54626;45.436;10.942;2022-09-28T16:26:46;1.60;;;0.68;;
67828;SDS011;54626;45.436;10.942;2022-09-28T16:29:26;1.77;;;0.70;;
67828;SDS011;54626;45.436;10.942;2022-09-28T16:31:53;3.60;;;0.80;;
67828;SDS011;54626;45.436;10.942;2022-09-28T16:34:24;2.20;;;0.77;;
67828;SDS011;54626;45.436;10.942;2022-09-28T16:36:55;1.95;;;0.90;;
67828;SDS011;54626;45.436;10.942;2022-09-28T16:39:22;5.38;;;0.90;;
67828;SDS011;54626;45.436;10.942;2022-09-28T16:41:51;2.95;;;0.70;;
67828;SDS011;54626;45.436;10.942;2022-09-28T16:44:26;1.95;;;0.60;;
67828;SDS011;54626;45.436;10.942;2022-09-28T16:46:54;1.90;;;0.63;;
67828;SDS011;54626;45.436;10.942;2022-09-28T16:49:24;1.20;;;0.70;;
67828;SDS011;54626;45.436;10.942;2022-09-28T16:51:51;1.65;;;0.60;;
67828;SDS011;54626;45.436;10.942;2022-09-28T16:54:23;1.83;;;0.88;;
67828;SDS011;54626;45.436;10.942;2022-09-28T16:57:10;2.22;;;0.50;;
67828;SDS011;54626;45.436;10.942;2022-09-28T16:59:38;3.63;;;0.90;;
67828;SDS011;54626;45.436;10.942;2022-09-28T17:02:12;2.83;;;1.20;;
67828;SDS011;54626;45.436;10.942;2022-09-28T17:05:03;6.25;;;1.13;;
67828;SDS011;54626;45.436;10.942;2022-09-28T17:07:32;2.53;;;0.90;;
67828;SDS011;54626;45.436;10.942;2022-09-28T17:10:28;2.15;;;0.82;;
67828;SDS011;54626;45.436;10.942;2022-09-28T17:13:24;1.70;;;0.90;;
67828;SDS011;54626;45.436;10.942;2022-09-28T17:16:01;2.05;;;1.00;;
67828;SDS011;54626;45.436;10.942;2022-09-28T17:18:35;2.17;;;0.95;;
67828;SDS011;54626;45.436;10.942;2022-09-28T17:21:04;5.20;;;2.22;;
67828;SDS011;54626;45.436;10.942;2022-09-28T17:23:47;9.70;;;3.45;;
67828;SDS011;54626;45.436;10.942;2022-09-28T17:26:33;12.57;;;4.50;;
67828;SDS011;54626;45.436;10.942;2022-09-28T17:29:01;17.45;;;5.65;;
67828;SDS011;54626;45.436;10.942;2022-09-28T17:31:28;16.05;;;5.93;;
67828;SDS011;54626;45.436;10.942;2022-09-28T17:33:55;8.10;;;3.13;;
67828;SDS011;54626;45.436;10.942;2022-09-28T17:36:22;9.07;;;3.38;;
67828;SDS011;54626;45.436;10.942;2022-09-28T17:38:51;6.65;;;2.80;;
67828;SDS011;54626;45.436;10.942;2022-09-28T17:41:18;5.22;;;1.92;;
67828;SDS011;54626;45.436;10.942;2022-09-28T17:43:46;4.32;;;1.75;;
67828;SDS011;54626;45.436;10.942;2022-09-28T17:48:58;4.47;;;1.92;;
67828;SDS011;54626;45.436;10.942;2022-09-28T17:51:28;4.25;;;1.40;;
67828;SDS011;54626;45.436;10.942;2022-09-28T17:53:56;3.42;;;1.50;;
67828;SDS011;54626;45.436;10.942;2022-09-28T17:56:23;2.63;;;1.23;;
67828;SDS011;54626;45.436;10.942;2022-09-28T17:58:58;3.53;;;1.30;;
67828;SDS011;54626;45.436;10.942;2022-09-28T18:01:25;2.50;;;1.08;;
67828;SDS011;54626;45.436;10.942;2022-09-28T18:03:59;4.40;;;1.10;;
67828;SDS011;54626;45.436;10.942;2022-09-28T18:06:27;2.50;;;0.95;;
67828;SDS011;54626;45.436;10.942;2022-09-28T18:08:54;3.05;;;1.10;;
67828;SDS011;54626;45.436;10.942;2022-09-28T18:11:22;2.60;;;1.42;;
67828;SDS011;54626;45.436;10.942;2022-09-28T18:13:48;1.15;;;0.75;;
67828;SDS011;54626;45.436;10.942;2022-09-28T18:16:15;1.30;;;0.98;;
67828;SDS011;54626;45.436;10.942;2022-09-28T18:18:44;2.55;;;1.20;;
67828;SDS011;54626;45.436;10.942;2022-09-28T18:21:12;2.63;;;1.20;;
67828;SDS011;54626;45.436;10.942;2022-09-28T18:23:39;1.58;;;0.68;;
67828;SDS011;54626;45.436;10.942;2022-09-28T18:26:12;2.25;;;1.23;;
67828;SDS011;54626;45.436;10.942;2022-09-28T18:28:40;1.90;;;1.10;;
67828;SDS011;54626;45.436;10.942;2022-09-28T18:31:07;2.00;;;1.15;;
67828;SDS011;54626;45.436;10.942;2022-09-28T18:33:39;2.05;;;0.90;;
67828;SDS011;54626;45.436;10.942;2022-09-28T18:36:06;3.35;;;0.93;;
67828;SDS011;54626;45.436;10.942;2022-09-28T18:38:35;2.80;;;1.30;;
67828;SDS011;54626;45.436;10.942;2022-09-28T18:41:10;3.30;;;1.30;;
67828;SDS011;54626;45.436;10.942;2022-09-28T18:43:41;3.65;;;1.52;;
67828;SDS011;54626;45.436;10.942;2022-09-28T18:46:16;2.40;;;1.13;;
67828;SDS011;54626;45.436;10.942;2022-09-28T18:48:45;3.78;;;1.40;;
67828;SDS011;54626;45.436;10.942;2022-09-28T18:51:14;3.63;;;1.55;;
67828;SDS011;54626;45.436;10.942;2022-09-28T18:53:45;3.38;;;1.35;;
67828;SDS011;54626;45.436;10.942;2022-09-28T18:56:12;3.20;;;1.10;;
67828;SDS011;54626;45.436;10.942;2022-09-28T18:58:43;1.63;;;1.17;;